Kyokuhoumaru No.12 — JL5963 — position and weather

sailwx.info

Track history (hours):
 
Tides and Currents Weather Stations Pressure Air Temp Water Temp Dewpoint Dewpoint Depression Visibility Wind Speed Wind Dir Waves Ship Positions

Kyokuhoumaru No.12

Last reported at 2015-Aug-05 01:33 UTC. Time now 2015-Aug-05 02:19 UTC.
Position N 35°19' E 139°44'.

Length 57 m.

Type: Tanker. MMSI: 431500879.

Date/timePositionNaut miles runAvg speedWind from/ knotsBaromVisibWave heightAir tempDewpointWater temp
2015-Aug-05 01:33N 35°19' E 139°44'9 8.6
2015-Aug-05 00:31N 35°10' E 139°46'  
2015-Jul-31 11:11N 35°07' E 139°40'7 9.6
2015-Jul-31 10:28N 35°12' E 139°45'9 9.6
2015-Jul-31 09:32N 35°21' E 139°42'9 9.0
2015-Jul-31 08:33N 35°28' E 139°48'9 8.9
2015-Jul-31 07:33N 35°35' E 139°56'7 5.6
2015-Jul-31 06:22N 35°41' E 139°57'0 0.0
2015-Jul-31 05:31N 35°41' E 139°57'0 0.0
2015-Jul-31 04:31N 35°41' E 139°57'5 5.2
2015-Jul-31 03:32N 35°36' E 139°55'1 0.6
2015-Jul-31 02:29N 35°36' E 139°54'0 0.1
2015-Jul-31 01:32N 35°36' E 139°54'0 0.0
2015-Jul-31 00:29N 35°36' E 139°54'0 0.0
2015-Jul-30 23:32N 35°36' E 139°54'0 0.0
2015-Jul-30 22:32N 35°36' E 139°54'0 0.0
2015-Jul-30 21:32N 35°36' E 139°54'0 0.0
2015-Jul-30 20:29N 35°36' E 139°54'0 0.0
2015-Jul-30 19:26N 35°36' E 139°54'0 0.0
2015-Jul-30 18:32N 35°36' E 139°54'0 0.0
2015-Jul-30 17:32N 35°36' E 139°54'0 0.0
2015-Jul-30 16:32N 35°36' E 139°54'0 0.0
2015-Jul-30 15:23N 35°36' E 139°54'0 0.0
2015-Jul-30 14:32N 35°36' E 139°54'5 5.2
2015-Jul-30 13:33N 35°31' E 139°53'11 9.9
2015-Jul-30 12:27N 35°22' E 139°45'8 8.5
2015-Jul-30 11:33N 35°15' E 139°47'10 9.5
2015-Jul-30 10:33N 35°06' E 139°43'  
2015-Jul-28 04:21N 34°22' E 135°06'8 9.9
2015-Jul-28 03:33N 34°28' E 135°12'10 2.2
2015-Jul-27 23:14N 34°33' E 135°22'2 0.4
2015-Jul-27 17:33N 34°32' E 135°20'4 4.3
2015-Jul-27 16:32N 34°34' E 135°15'9 8.7
2015-Jul-27 15:33N 34°35' E 135°05'  
Track history (hours):
 
Tides and Currents Weather Stations Pressure Air Temp Water Temp Dewpoint Dewpoint Depression Visibility Wind Speed Wind Dir Waves Ship Positions

Kyokuhoumaru No.12

Last reported at 2015-Aug-05 01:33 UTC. Time now 2015-Aug-05 02:19 UTC.
Position N 35°19' E 139°44'.

Length 57 m.

Type: Tanker. MMSI: 431500879.

Date/timePositionNaut miles runAvg speedWind from/ knotsBaromVisibWave heightAir tempDewpointWater temp
2015-Aug-05 01:33N 35°19' E 139°44'9 8.6
2015-Aug-05 00:31N 35°10' E 139°46'  
2015-Jul-31 11:11N 35°07' E 139°40'7 9.6
2015-Jul-31 10:28N 35°12' E 139°45'9 9.6
2015-Jul-31 09:32N 35°21' E 139°42'9 9.0
2015-Jul-31 08:33N 35°28' E 139°48'9 8.9
2015-Jul-31 07:33N 35°35' E 139°56'7 5.6
2015-Jul-31 06:22N 35°41' E 139°57'0 0.0
2015-Jul-31 05:31N 35°41' E 139°57'0 0.0
2015-Jul-31 04:31N 35°41' E 139°57'5 5.2
2015-Jul-31 03:32N 35°36' E 139°55'1 0.6
2015-Jul-31 02:29N 35°36' E 139°54'0 0.1
2015-Jul-31 01:32N 35°36' E 139°54'0 0.0
2015-Jul-31 00:29N 35°36' E 139°54'0 0.0
2015-Jul-30 23:32N 35°36' E 139°54'0 0.0
2015-Jul-30 22:32N 35°36' E 139°54'0 0.0
2015-Jul-30 21:32N 35°36' E 139°54'0 0.0
2015-Jul-30 20:29N 35°36' E 139°54'0 0.0
2015-Jul-30 19:26N 35°36' E 139°54'0 0.0
2015-Jul-30 18:32N 35°36' E 139°54'0 0.0
2015-Jul-30 17:32N 35°36' E 139°54'0 0.0
2015-Jul-30 16:32N 35°36' E 139°54'0 0.0
2015-Jul-30 15:23N 35°36' E 139°54'0 0.0
2015-Jul-30 14:32N 35°36' E 139°54'5 5.2
2015-Jul-30 13:33N 35°31' E 139°53'11 9.9
2015-Jul-30 12:27N 35°22' E 139°45'8 8.5
2015-Jul-30 11:33N 35°15' E 139°47'10 9.5
2015-Jul-30 10:33N 35°06' E 139°43'  
2015-Jul-28 04:21N 34°22' E 135°06'8 9.9
2015-Jul-28 03:33N 34°28' E 135°12'10 2.2
2015-Jul-27 23:14N 34°33' E 135°22'2 0.4
2015-Jul-27 17:33N 34°32' E 135°20'4 4.3
2015-Jul-27 16:32N 34°34' E 135°15'9 8.7
2015-Jul-27 15:33N 34°35' E 135°05'  

Dump ship's entire track history